createdAt,value
2022-10-05T00:01:01.622Z,4.10
2022-10-05T00:03:37.258Z,5.70
2022-10-05T00:06:05.464Z,5.05
2022-10-05T00:08:35.659Z,4.88
2022-10-05T00:11:03.043Z,5.10
2022-10-05T00:13:31.798Z,4.32
2022-10-05T00:16:11.085Z,4.80
2022-10-05T00:18:39.296Z,4.32
2022-10-05T00:21:27.530Z,4.93
2022-10-05T00:23:57.872Z,5.07
2022-10-05T00:26:27.820Z,5.75
2022-10-05T00:28:55.444Z,4.13
2022-10-05T00:31:32.047Z,5.22
2022-10-05T00:33:59.641Z,5.80
2022-10-05T00:36:26.943Z,5.05
2022-10-05T00:38:55.092Z,4.20
2022-10-05T00:41:38.421Z,4.88
2022-10-05T00:44:05.926Z,7.07
2022-10-05T00:46:46.872Z,5.18
2022-10-05T00:49:34.104Z,4.97
2022-10-05T00:52:22.292Z,5.10
2022-10-05T00:55:07.342Z,4.53
2022-10-05T00:57:52.498Z,5.93
2022-10-05T01:00:23.884Z,5.00
2022-10-05T01:03:22.426Z,5.90
2022-10-05T01:06:10.818Z,4.72
2022-10-05T01:09:03.522Z,5.63
2022-10-05T01:11:47.845Z,5.82
2022-10-05T01:14:30.676Z,5.25
2022-10-05T01:17:12.086Z,5.85
2022-10-05T01:20:01.029Z,5.22
2022-10-05T01:22:55.065Z,4.68
2022-10-05T01:25:54.113Z,4.82
2022-10-05T01:28:41.357Z,4.75
2022-10-05T01:31:35.406Z,6.50
2022-10-05T01:34:27.279Z,5.65
2022-10-05T01:37:24.867Z,5.50
2022-10-05T01:40:08.876Z,5.55
2022-10-05T01:43:01.001Z,5.75
2022-10-05T01:45:57.767Z,5.22
2022-10-05T01:48:49.939Z,5.30
2022-10-05T01:51:31.098Z,4.60
2022-10-05T01:54:28.774Z,6.25
2022-10-05T01:57:33.755Z,5.18
2022-10-05T02:00:08.040Z,4.53
2022-10-05T02:02:44.035Z,5.25
2022-10-05T02:05:20.251Z,4.55
2022-10-05T02:07:54.324Z,4.72
2022-10-05T02:10:39.068Z,4.85
2022-10-05T02:13:23.224Z,4.15
2022-10-05T02:16:18.073Z,4.95
2022-10-05T02:18:59.469Z,4.00
2022-10-05T02:21:28.633Z,4.30
2022-10-05T02:24:00.666Z,3.67
2022-10-05T02:26:29.907Z,4.53
2022-10-05T02:29:08.546Z,4.85
2022-10-05T02:31:43.674Z,3.92
2022-10-05T02:34:43.603Z,4.97
2022-10-05T02:37:23.542Z,4.47
2022-10-05T02:40:18.530Z,4.38
2022-10-05T02:43:10.831Z,3.85
2022-10-05T02:45:58.383Z,4.70
2022-10-05T02:48:59.587Z,4.63
2022-10-05T02:51:28.693Z,4.50
2022-10-05T02:54:01.435Z,3.97
2022-10-05T02:56:37.772Z,4.40
2022-10-05T02:59:16.646Z,4.47
2022-10-05T03:01:59.138Z,4.40
2022-10-05T03:04:39.900Z,4.38
2022-10-05T03:07:18.284Z,3.63
2022-10-05T03:09:55.712Z,4.18
2022-10-05T03:12:38.662Z,4.35
2022-10-05T03:15:45.860Z,3.67
2022-10-05T03:19:00.216Z,4.32
2022-10-05T03:21:51.308Z,4.50
2022-10-05T03:24:53.456Z,3.88
2022-10-05T03:27:43.455Z,4.00
2022-10-05T03:30:18.409Z,4.18
2022-10-05T03:32:51.486Z,4.40
2022-10-05T03:35:29.258Z,3.72
2022-10-05T03:38:17.270Z,3.83
2022-10-05T03:41:17.627Z,5.05
2022-10-05T03:44:35.778Z,4.55
2022-10-05T03:47:35.122Z,3.95
2022-10-05T03:50:19.887Z,4.25
2022-10-05T03:52:56.251Z,4.10
2022-10-05T03:55:23.584Z,4.20
2022-10-05T03:57:53.282Z,3.97
2022-10-05T04:00:25.932Z,5.00
2022-10-05T04:03:16.197Z,4.10
2022-10-05T04:05:47.374Z,4.13
2022-10-05T04:08:21.156Z,4.40
2022-10-05T04:11:02.998Z,4.70
2022-10-05T04:13:42.411Z,5.00
2022-10-05T04:16:14.673Z,4.15
2022-10-05T04:18:51.341Z,4.72
2022-10-05T04:21:26.362Z,5.15
2022-10-05T04:24:04.523Z,4.63
2022-10-05T04:26:42.633Z,4.50
2022-10-05T04:29:34.519Z,4.25
2022-10-05T04:32:42.928Z,4.85
2022-10-05T04:35:54.479Z,5.05
2022-10-05T04:39:06.288Z,3.97
2022-10-05T04:41:56.348Z,3.88
2022-10-05T04:44:33.945Z,5.45
2022-10-05T04:47:32.208Z,4.85
2022-10-05T04:50:14.257Z,3.95
2022-10-05T04:53:30.400Z,3.90
2022-10-05T04:55:57.717Z,4.63
2022-10-05T04:58:30.622Z,4.40
2022-10-05T05:01:17.518Z,3.97
2022-10-05T05:04:02.209Z,5.03
2022-10-05T05:06:38.831Z,4.43
2022-10-05T05:09:31.637Z,4.25
2022-10-05T05:12:26.546Z,4.55
2022-10-05T05:15:12.884Z,3.95
2022-10-05T05:17:58.341Z,4.20
2022-10-05T05:20:25.741Z,4.95
2022-10-05T05:23:11.789Z,4.57
2022-10-05T05:25:53.369Z,5.10
2022-10-05T05:28:46.612Z,4.88
2022-10-05T05:31:44.449Z,4.38
2022-10-05T05:34:11.615Z,5.05
2022-10-05T05:36:52.196Z,4.47
2022-10-05T05:39:51.173Z,5.15
2022-10-05T05:42:46.206Z,5.82
2022-10-05T05:45:40.815Z,4.97
2022-10-05T05:48:38.246Z,5.05
2022-10-05T05:51:18.487Z,4.70
2022-10-05T05:53:53.912Z,5.20
2022-10-05T05:59:04.808Z,5.22
2022-10-05T06:01:43.413Z,4.80
2022-10-05T06:05:22.153Z,5.07
2022-10-05T06:07:51.957Z,5.53
2022-10-05T06:10:25.298Z,4.57
2022-10-05T06:12:59.655Z,5.50
2022-10-05T06:15:59.817Z,5.10
2022-10-05T06:18:28.965Z,6.03
2022-10-05T06:21:02.340Z,7.10
2022-10-05T06:23:54.299Z,5.50
2022-10-05T06:27:01.279Z,5.55
2022-10-05T06:29:46.758Z,4.80
2022-10-05T06:32:28.511Z,4.88
2022-10-05T06:35:07.114Z,4.65
2022-10-05T06:38:00.823Z,5.43
2022-10-05T06:40:39.137Z,4.63
2022-10-05T06:43:33.113Z,4.38
2022-10-05T06:46:23.271Z,5.22
2022-10-05T06:49:33.780Z,4.78
2022-10-05T06:52:20.166Z,4.60
2022-10-05T06:54:50.278Z,5.70
2022-10-05T06:57:36.993Z,4.85
2022-10-05T07:00:16.330Z,6.25
2022-10-05T07:03:15.195Z,5.78
2022-10-05T07:05:52.319Z,4.20
2022-10-05T07:08:29.799Z,4.47
2022-10-05T07:11:34.554Z,4.78
2022-10-05T07:14:17.809Z,4.75
2022-10-05T07:17:07.270Z,4.43
2022-10-05T07:19:40.260Z,4.32
2022-10-05T07:22:39.620Z,4.47
2022-10-05T07:25:23.395Z,4.28
2022-10-05T07:28:29.462Z,5.00
2022-10-05T07:31:23.952Z,4.38
2022-10-05T07:34:01.621Z,4.35
2022-10-05T07:37:08.753Z,4.57
2022-10-05T07:40:05.835Z,4.45
2022-10-05T07:42:53.358Z,4.93
2022-10-05T07:45:32.360Z,4.32
2022-10-05T07:48:21.899Z,4.78
2022-10-05T07:51:07.659Z,4.82
2022-10-05T07:53:43.306Z,4.35
2022-10-05T07:56:22.388Z,4.75
2022-10-05T07:58:57.272Z,4.97
2022-10-05T08:01:29.946Z,5.05
2022-10-05T08:04:21.613Z,4.80
2022-10-05T08:06:58.452Z,4.80
2022-10-05T08:09:47.245Z,4.40
2022-10-05T08:12:46.664Z,4.50
2022-10-05T08:15:22.285Z,3.65
2022-10-05T08:18:23.782Z,4.75
2022-10-05T08:21:00.017Z,5.03
2022-10-05T08:23:46.052Z,4.95
2022-10-05T08:26:27.900Z,4.70
2022-10-05T08:29:03.577Z,4.97
2022-10-05T08:31:37.786Z,4.63
2022-10-05T08:34:17.066Z,4.43
2022-10-05T08:36:59.712Z,4.68
2022-10-05T08:39:36.748Z,4.00
2022-10-05T08:42:17.326Z,3.97
2022-10-05T08:45:06.259Z,4.60
2022-10-05T08:47:52.448Z,3.65
2022-10-05T08:50:31.335Z,4.03
2022-10-05T08:53:07.788Z,4.57
2022-10-05T08:56:28.434Z,3.83
2022-10-05T08:59:14.526Z,3.15
2022-10-05T09:02:00.982Z,3.78
2022-10-05T09:05:07.989Z,3.80
2022-10-05T09:08:16.566Z,4.03
2022-10-05T09:10:55.801Z,5.18
2022-10-05T09:13:53.628Z,3.95
2022-10-05T09:16:42.981Z,4.18
2022-10-05T09:19:35.169Z,4.10
2022-10-05T09:22:16.087Z,4.10
2022-10-05T09:24:53.096Z,4.55
2022-10-05T09:27:38.230Z,4.85
2022-10-05T09:30:23.786Z,4.40
2022-10-05T09:33:09.611Z,4.28
2022-10-05T09:36:13.899Z,4.28
2022-10-05T09:38:57.132Z,3.83
2022-10-05T09:41:43.221Z,3.20
2022-10-05T09:44:32.651Z,3.85
2022-10-05T09:47:34.254Z,3.88
2022-10-05T09:50:16.693Z,3.03
2022-10-05T09:53:08.261Z,4.38
2022-10-05T09:55:51.213Z,4.43
2022-10-05T09:58:34.475Z,3.65
2022-10-05T10:01:32.529Z,4.95
2022-10-05T10:04:26.318Z,4.22
2022-10-05T10:06:56.519Z,3.13
2022-10-05T10:09:38.711Z,3.63
2022-10-05T10:12:36.683Z,2.92
2022-10-05T10:15:45.992Z,3.00
2022-10-05T10:18:35.036Z,3.25
2022-10-05T10:21:33.498Z,4.63
2022-10-05T10:24:15.638Z,4.35
2022-10-05T10:26:57.798Z,3.95
2022-10-05T10:29:43.564Z,3.42
2022-10-05T10:35:13.502Z,4.38
2022-10-05T10:37:52.913Z,3.42
2022-10-05T10:40:27.382Z,3.45
2022-10-05T10:43:09.333Z,4.13
2022-10-05T10:45:48.487Z,3.40
2022-10-05T10:48:31.112Z,4.00
2022-10-05T10:51:26.094Z,3.78
2022-10-05T10:54:12.723Z,4.40
2022-10-05T10:57:09.640Z,3.60
2022-10-05T11:00:15.963Z,3.22
2022-10-05T11:02:55.309Z,3.42
2022-10-05T11:05:47.940Z,2.78
2022-10-05T11:08:46.824Z,2.85
2022-10-05T11:11:20.578Z,4.00
2022-10-05T11:14:02.984Z,2.45
2022-10-05T11:16:36.351Z,3.20
2022-10-05T11:19:03.632Z,3.88
2022-10-05T11:21:42.725Z,2.75
2022-10-05T11:24:43.207Z,3.33
2022-10-05T11:27:40.916Z,3.67
2022-10-05T11:30:27.218Z,3.15
2022-10-05T11:33:15.245Z,3.40
2022-10-05T11:36:21.066Z,2.95
2022-10-05T11:38:54.030Z,3.33
2022-10-05T11:41:33.422Z,2.80
2022-10-05T11:44:46.808Z,3.03
2022-10-05T11:47:43.038Z,2.88
2022-10-05T11:53:02.022Z,2.53
2022-10-05T11:55:35.195Z,2.80
2022-10-05T11:58:13.578Z,2.80
2022-10-05T12:00:45.072Z,2.92
2022-10-05T12:03:12.741Z,3.58
2022-10-05T12:05:52.022Z,3.42
2022-10-05T12:08:37.085Z,3.45
2022-10-05T12:11:47.229Z,3.05
2022-10-05T12:14:21.618Z,3.30
2022-10-05T12:17:13.054Z,3.50
2022-10-05T12:19:48.673Z,2.67
2022-10-05T12:22:25.833Z,3.53
2022-10-05T12:25:32.009Z,3.75
2022-10-05T12:28:36.306Z,3.13
2022-10-05T12:31:35.091Z,2.85
2022-10-05T12:34:23.552Z,2.78
2022-10-05T12:37:05.315Z,2.72
2022-10-05T12:39:46.690Z,2.72
2022-10-05T12:42:43.797Z,2.67
2022-10-05T12:45:19.753Z,2.50
2022-10-05T12:48:16.228Z,2.72
2022-10-05T12:50:58.249Z,3.08
2022-10-05T12:53:41.587Z,2.50
2022-10-05T12:56:11.864Z,2.78
2022-10-05T12:59:04.690Z,3.13
2022-10-05T13:01:47.125Z,3.08
2022-10-05T13:04:32.760Z,3.10
2022-10-05T13:07:18.489Z,2.67
2022-10-05T13:12:54.556Z,2.90
2022-10-05T13:15:32.842Z,2.47
2022-10-05T13:18:18.837Z,2.67
2022-10-05T13:20:50.779Z,2.70
2022-10-05T13:23:27.073Z,2.40
2022-10-05T13:26:12.896Z,2.92
2022-10-05T13:29:11.859Z,3.58
2022-10-05T13:31:48.134Z,3.38
2022-10-05T13:34:22.874Z,3.92
2022-10-05T13:37:11.227Z,3.25
2022-10-05T13:39:54.563Z,2.35
2022-10-05T13:42:46.453Z,2.70
2022-10-05T13:45:24.748Z,2.17
2022-10-05T13:48:16.485Z,2.35
2022-10-05T13:51:07.389Z,2.15
2022-10-05T13:54:02.732Z,2.80
2022-10-05T13:56:34.061Z,2.37
2022-10-05T13:59:44.547Z,1.83
2022-10-05T14:02:23.212Z,2.17
2022-10-05T14:04:58.719Z,3.05
2022-10-05T14:07:49.636Z,1.60
2022-10-05T14:10:33.139Z,1.80
2022-10-05T14:13:02.733Z,1.80
2022-10-05T14:15:33.720Z,1.90
2022-10-05T14:18:28.395Z,1.98
2022-10-05T14:21:09.167Z,1.95
2022-10-05T14:23:36.618Z,1.98
2022-10-05T14:26:17.268Z,1.58
2022-10-05T14:29:01.164Z,2.05
2022-10-05T14:31:36.008Z,2.00
2022-10-05T14:34:31.403Z,2.00
2022-10-05T14:37:01.795Z,1.73
2022-10-05T14:39:34.589Z,1.55
2022-10-05T14:42:18.644Z,2.13
2022-10-05T14:44:57.354Z,1.55
2022-10-05T14:47:27.569Z,1.70
2022-10-05T14:50:13.372Z,1.80
2022-10-05T14:55:30.708Z,1.75
2022-10-05T14:58:13.105Z,1.42
2022-10-05T15:00:57.270Z,1.90
2022-10-05T15:03:50.285Z,2.13
2022-10-05T15:06:30.241Z,1.90
2022-10-05T15:09:23.383Z,1.90
2022-10-05T15:12:03.330Z,2.78
2022-10-05T15:14:37.427Z,2.60
2022-10-05T15:17:29.492Z,2.97
2022-10-05T15:19:59.628Z,3.03
2022-10-05T15:22:52.216Z,3.17
2022-10-05T15:25:38.601Z,2.92
2022-10-05T15:28:41.514Z,2.60
2022-10-05T15:31:33.817Z,2.83
2022-10-05T15:34:03.203Z,2.55
2022-10-05T15:36:41.973Z,2.80
2022-10-05T15:39:27.238Z,2.50
2022-10-05T15:42:04.283Z,2.83
2022-10-05T15:45:13.754Z,2.30
2022-10-05T15:48:01.307Z,3.17
2022-10-05T15:50:48.785Z,2.08
2022-10-05T15:54:19.403Z,1.90
2022-10-05T15:57:02.256Z,2.63
2022-10-05T15:59:45.723Z,1.63
2022-10-05T16:02:20.359Z,1.50
2022-10-05T16:05:08.113Z,2.00
2022-10-05T16:08:08.641Z,1.52
2022-10-05T16:10:41.177Z,1.92
2022-10-05T16:13:23.005Z,16.60
2022-10-05T16:16:01.335Z,13.93
2022-10-05T16:18:32.851Z,5.38
2022-10-05T16:21:11.109Z,15.77
2022-10-05T16:23:53.005Z,11.57
2022-10-05T16:26:42.082Z,9.55
2022-10-05T16:29:37.180Z,3.20
2022-10-05T16:32:22.615Z,2.33
2022-10-05T16:35:25.499Z,3.80
2022-10-05T16:38:13.736Z,3.40
2022-10-05T16:41:02.391Z,1.90
2022-10-05T16:44:28.088Z,1.75
2022-10-05T16:47:28.747Z,2.72
2022-10-05T16:50:13.897Z,1.98
2022-10-05T16:52:45.865Z,2.35
2022-10-05T16:55:20.444Z,1.83
2022-10-05T16:57:57.078Z,2.20
2022-10-05T17:00:38.699Z,3.17
2022-10-05T17:03:29.987Z,2.20
2022-10-05T17:06:27.662Z,1.70
2022-10-05T17:09:19.186Z,2.10
2022-10-05T17:12:05.073Z,2.30
2022-10-05T17:14:56.853Z,2.25
2022-10-05T17:17:45.681Z,2.10
2022-10-05T17:21:14.240Z,4.90
2022-10-05T17:24:21.960Z,3.65
2022-10-05T17:27:32.023Z,4.55
2022-10-05T17:33:20.385Z,4.47
2022-10-05T17:39:15.014Z,3.30
2022-10-05T17:41:43.391Z,3.75
2022-10-05T17:44:10.410Z,2.95
2022-10-05T17:46:47.080Z,3.15
2022-10-05T17:49:20.497Z,3.33
2022-10-05T17:52:06.363Z,2.55
2022-10-05T17:57:32.450Z,2.63
2022-10-05T18:00:05.992Z,2.63
2022-10-05T18:02:36.718Z,3.05
2022-10-05T18:05:05.637Z,3.28
2022-10-05T18:07:37.919Z,2.85
2022-10-05T18:10:16.845Z,2.75
2022-10-05T18:13:02.255Z,2.55
2022-10-05T18:15:29.860Z,3.17
2022-10-05T18:18:32.887Z,3.40
2022-10-05T18:21:18.786Z,3.08
2022-10-05T18:24:02.933Z,2.47
2022-10-05T18:26:38.984Z,2.90
2022-10-05T18:29:54.805Z,2.90
2022-10-05T18:32:50.580Z,3.53
2022-10-05T18:35:28.673Z,3.35
2022-10-05T18:38:28.392Z,2.92
2022-10-05T18:41:20.524Z,3.28
2022-10-05T18:43:53.406Z,2.92
2022-10-05T18:46:58.003Z,3.00
2022-10-05T18:49:54.778Z,3.90
2022-10-05T18:52:24.993Z,3.25
2022-10-05T18:55:10.889Z,3.25
2022-10-05T18:57:40.916Z,3.97
2022-10-05T19:00:16.836Z,3.28
2022-10-05T19:02:57.516Z,3.63
2022-10-05T19:05:46.902Z,3.38
2022-10-05T19:08:47.292Z,3.10
2022-10-05T19:11:23.555Z,2.47
2022-10-05T19:14:32.000Z,2.67
2022-10-05T19:17:20.476Z,3.30
2022-10-05T19:20:09.286Z,3.55
2022-10-05T19:23:05.468Z,3.25
2022-10-05T19:28:41.743Z,2.38
2022-10-05T19:31:12.271Z,2.90
2022-10-05T19:34:19.428Z,2.72
2022-10-05T19:37:10.121Z,3.28
2022-10-05T19:40:04.634Z,4.80
2022-10-05T19:42:57.461Z,2.97
2022-10-05T19:45:29.823Z,3.30
2022-10-05T19:48:28.084Z,3.53
2022-10-05T19:50:58.847Z,2.72
2022-10-05T19:53:31.302Z,3.25
2022-10-05T19:56:21.370Z,3.28
2022-10-05T19:58:50.603Z,2.78
2022-10-05T20:01:33.712Z,2.65
2022-10-05T20:04:01.362Z,2.70
2022-10-05T20:06:30.416Z,2.47
2022-10-05T20:09:00.487Z,3.72
2022-10-05T20:11:28.741Z,2.85
2022-10-05T20:13:55.823Z,2.97
2022-10-05T20:19:51.045Z,2.55
2022-10-05T20:22:25.842Z,2.83
2022-10-05T20:24:59.106Z,2.75
2022-10-05T20:27:49.570Z,2.72
2022-10-05T20:30:22.321Z,2.88
2022-10-05T20:32:50.998Z,3.00
2022-10-05T20:35:21.132Z,2.45
2022-10-05T20:37:50.354Z,2.88
2022-10-05T20:40:19.550Z,3.95
2022-10-05T20:42:47.578Z,2.72
2022-10-05T20:45:14.744Z,3.33
2022-10-05T20:47:42.613Z,3.08
2022-10-05T20:50:11.328Z,3.00
2022-10-05T20:52:38.992Z,3.33
2022-10-05T20:55:09.196Z,3.03
2022-10-05T20:57:46.115Z,3.58
2022-10-05T21:00:14.133Z,2.47
2022-10-05T21:02:41.533Z,3.00
2022-10-05T21:05:09.853Z,2.55
2022-10-05T21:07:37.331Z,2.60
2022-10-05T21:10:05.319Z,2.90
2022-10-05T21:12:34.210Z,3.63
2022-10-05T21:15:01.668Z,2.78
2022-10-05T21:17:28.979Z,2.50
2022-10-05T21:19:56.220Z,3.25
2022-10-05T21:22:25.369Z,2.90
2022-10-05T21:24:52.744Z,2.72
2022-10-05T21:27:19.793Z,2.53
2022-10-05T21:29:47.103Z,3.30
2022-10-05T21:32:14.373Z,2.38
2022-10-05T21:34:42.285Z,2.38
2022-10-05T21:37:09.509Z,2.63
2022-10-05T21:39:37.139Z,2.38
2022-10-05T21:42:04.754Z,2.13
2022-10-05T21:44:32.130Z,2.30
2022-10-05T21:46:59.626Z,2.00
2022-10-05T21:49:28.362Z,2.78
2022-10-05T21:51:55.694Z,2.75
2022-10-05T21:54:23.691Z,2.10
2022-10-05T21:56:54.618Z,2.03
2022-10-05T21:59:24.734Z,2.08
2022-10-05T22:01:52.715Z,2.17
2022-10-05T22:04:19.966Z,2.00
2022-10-05T22:06:48.515Z,2.03
2022-10-05T22:09:15.943Z,2.30
2022-10-05T22:11:46.365Z,3.08
2022-10-05T22:14:15.606Z,2.47
2022-10-05T22:16:44.394Z,1.50
2022-10-05T22:19:16.116Z,1.75
2022-10-05T22:21:43.623Z,2.00
2022-10-05T22:24:14.278Z,1.98
2022-10-05T22:26:44.073Z,1.58
2022-10-05T22:29:11.436Z,1.20
2022-10-05T22:31:39.666Z,1.88
2022-10-05T22:34:07.083Z,1.95
2022-10-05T22:36:35.670Z,1.50
2022-10-05T22:39:03.115Z,1.50
2022-10-05T22:41:30.282Z,1.48
2022-10-05T22:43:57.616Z,1.60
2022-10-05T22:46:25.473Z,1.85
2022-10-05T22:48:52.692Z,2.08
2022-10-05T22:51:20.184Z,1.52
2022-10-05T22:53:47.453Z,1.83
2022-10-05T22:56:15.153Z,1.92
2022-10-05T22:58:43.637Z,1.30
2022-10-05T23:01:14.293Z,1.60
2022-10-05T23:03:42.071Z,1.33
2022-10-05T23:06:10.928Z,1.80
2022-10-05T23:08:39.399Z,1.77
2022-10-05T23:11:09.645Z,1.40
2022-10-05T23:13:37.065Z,1.50
2022-10-05T23:16:12.467Z,1.33
2022-10-05T23:21:08.749Z,1.65
2022-10-05T23:23:41.430Z,1.40
2022-10-05T23:26:11.002Z,1.50
2022-10-05T23:28:40.605Z,0.93
2022-10-05T23:31:09.260Z,1.35
2022-10-05T23:33:36.490Z,1.10
2022-10-05T23:36:18.982Z,1.48
2022-10-05T23:38:46.842Z,1.60
2022-10-05T23:41:14.804Z,1.15
2022-10-05T23:43:43.370Z,1.13
2022-10-05T23:46:11.489Z,1.30
2022-10-05T23:48:38.745Z,3.58
2022-10-05T23:51:07.686Z,1.20
2022-10-05T23:53:35.172Z,1.52
2022-10-05T23:56:02.662Z,1.38
2022-10-05T23:58:30.505Z,1.35
